Briarcliff, New York
Current Conditions -  °F | °C
As of 7:56 PM on Tuesday 27 Jan 2015 (Local Time) from KHPN Reporting Station
Broken Clouds Broken Clouds  
Wind Chill:   Ceiling: 12000
Heat Index: 19°   Visibility: 10mi
Dew Point:   Wind: 21mph
Humidity: 65%   Direction: 330°NNW
Pressure: 29.72"   Gusts: 25mph
Location:  41.1414°N, 73.8338°W
Report Text: KHPN 280056Z 33018G22KT 10SM BKN120 M07/M13 A2972 RMK AO2 PK WND 34028/0001 SLP075 T10721128
Loading
Personal Weather Stations






























Interactive Weather Map New forecast layout! Learn more

10-Day Weather Forecast

Advertisements
Track Severe Weather on mobile